createdAt,value
2023-06-30T00:00:35.832Z,15.59
2023-06-30T00:03:02.945Z,15.63
2023-06-30T00:05:30.013Z,15.69
2023-06-30T00:07:59.830Z,15.58
2023-06-30T00:10:27.112Z,15.55
2023-06-30T00:12:54.336Z,15.51
2023-06-30T00:15:21.201Z,15.21
2023-06-30T00:17:49.716Z,15.12
2023-06-30T00:20:16.832Z,15.16
2023-06-30T00:22:43.689Z,15.29
2023-06-30T00:25:11.660Z,15.24
2023-06-30T00:27:39.645Z,15.08
2023-06-30T00:30:06.727Z,14.97
2023-06-30T00:32:34.413Z,15.03
2023-06-30T00:35:01.482Z,15.17
2023-06-30T00:37:28.373Z,15.04
2023-06-30T00:39:55.444Z,15.17
2023-06-30T00:42:24.716Z,15.07
2023-06-30T00:44:51.571Z,14.96
2023-06-30T00:47:19.321Z,14.84
2023-06-30T00:49:46.678Z,14.81
2023-06-30T00:52:13.475Z,14.73
2023-06-30T00:54:41.448Z,14.67
2023-06-30T00:57:08.459Z,14.65
2023-06-30T00:59:35.394Z,14.73
2023-06-30T01:02:06.070Z,14.86
2023-06-30T01:04:48.426Z,14.65
2023-06-30T01:07:21.240Z,14.61
2023-06-30T01:09:52.527Z,14.71
2023-06-30T01:12:19.809Z,14.73
2023-06-30T01:14:47.824Z,14.66
2023-06-30T01:17:16.567Z,14.57
2023-06-30T01:19:46.342Z,14.69
2023-06-30T01:22:20.427Z,14.42
2023-06-30T01:24:49.280Z,14.43
2023-06-30T01:27:16.113Z,14.48
2023-06-30T01:29:43.783Z,14.44
2023-06-30T01:32:11.077Z,14.49
2023-06-30T01:34:38.334Z,14.60
2023-06-30T01:37:05.165Z,14.62
2023-06-30T01:39:32.261Z,14.58
2023-06-30T01:42:00.360Z,14.38
2023-06-30T01:44:28.002Z,14.29
2023-06-30T01:46:54.901Z,14.37
2023-06-30T01:49:22.360Z,14.40
2023-06-30T01:51:50.202Z,14.37
2023-06-30T01:54:16.968Z,14.33
2023-06-30T01:56:50.507Z,14.35
2023-06-30T01:59:17.717Z,14.48
2023-06-30T02:01:44.549Z,14.38
2023-06-30T02:04:11.472Z,14.32
2023-06-30T02:06:38.258Z,14.33
2023-06-30T02:09:05.190Z,14.29
2023-06-30T02:11:32.360Z,14.21
2023-06-30T02:13:59.182Z,14.41
2023-06-30T02:16:26.084Z,14.42
2023-06-30T02:18:56.111Z,14.20
2023-06-30T02:21:23.401Z,13.88
2023-06-30T02:23:50.188Z,14.00
2023-06-30T02:26:17.154Z,14.17
2023-06-30T02:28:44.106Z,14.25
2023-06-30T02:31:11.142Z,13.90
2023-06-30T02:33:38.900Z,13.93
2023-06-30T02:36:05.859Z,13.80
2023-06-30T02:38:32.982Z,13.86
2023-06-30T02:40:59.868Z,13.77
2023-06-30T02:43:28.677Z,13.91
2023-06-30T02:45:55.642Z,14.01
2023-06-30T02:48:22.667Z,13.84
2023-06-30T02:50:49.839Z,13.73
2023-06-30T02:53:17.433Z,13.86
2023-06-30T02:55:44.517Z,13.91
2023-06-30T02:58:15.134Z,13.75
2023-06-30T03:00:42.931Z,13.72
2023-06-30T03:03:10.118Z,13.90
2023-06-30T03:05:38.411Z,13.97
2023-06-30T03:08:07.122Z,13.98
2023-06-30T03:10:34.359Z,14.06
2023-06-30T03:13:01.298Z,13.87
2023-06-30T03:15:29.132Z,13.85
2023-06-30T03:17:56.783Z,13.97
2023-06-30T03:20:24.595Z,14.05
2023-06-30T03:22:53.179Z,13.96
2023-06-30T03:25:20.545Z,14.12
2023-06-30T03:27:47.482Z,14.16
2023-06-30T03:30:14.697Z,14.32
2023-06-30T03:32:45.202Z,14.50
2023-06-30T03:35:12.089Z,14.69
2023-06-30T03:37:38.894Z,14.87
2023-06-30T03:40:06.885Z,15.04
2023-06-30T03:42:34.120Z,15.44
2023-06-30T03:45:01.904Z,15.65
2023-06-30T03:47:32.125Z,15.57
2023-06-30T03:49:58.849Z,15.60
2023-06-30T03:52:27.601Z,15.63
2023-06-30T03:54:54.858Z,15.46
2023-06-30T03:57:21.770Z,15.21
2023-06-30T03:59:48.697Z,15.17
2023-06-30T04:02:15.497Z,15.16
2023-06-30T04:04:42.396Z,14.86
2023-06-30T04:07:09.620Z,14.70
2023-06-30T04:09:36.446Z,14.88
2023-06-30T04:12:03.354Z,14.78
2023-06-30T04:14:30.514Z,14.76
2023-06-30T04:16:59.300Z,14.86
2023-06-30T04:19:26.409Z,15.00
2023-06-30T04:21:53.261Z,14.93
2023-06-30T04:24:20.870Z,15.03
2023-06-30T04:26:47.852Z,15.27
2023-06-30T04:29:16.727Z,15.22
2023-06-30T04:31:44.131Z,15.46
2023-06-30T04:34:11.157Z,15.58
2023-06-30T04:36:38.325Z,15.70
2023-06-30T04:39:05.289Z,15.77
2023-06-30T04:41:32.277Z,15.87
2023-06-30T04:44:00.716Z,15.67
2023-06-30T04:46:28.423Z,15.65
2023-06-30T04:48:57.103Z,15.75
2023-06-30T04:51:24.804Z,16.06
2023-06-30T04:53:51.656Z,16.03
2023-06-30T04:56:20.214Z,15.98
2023-06-30T04:58:47.274Z,16.08
2023-06-30T05:01:14.184Z,16.24
2023-06-30T05:03:41.040Z,16.28
2023-06-30T05:06:08.130Z,16.47
2023-06-30T05:08:34.940Z,16.67
2023-06-30T05:11:01.851Z,16.80
2023-06-30T05:13:28.721Z,16.61
2023-06-30T05:15:55.561Z,16.53
2023-06-30T05:18:22.415Z,16.60
2023-06-30T05:20:49.344Z,16.62
2023-06-30T05:23:16.109Z,16.58
2023-06-30T05:25:43.795Z,16.57
2023-06-30T05:28:10.809Z,16.69
2023-06-30T05:30:37.613Z,16.83
2023-06-30T05:33:04.454Z,17.01
2023-06-30T05:35:31.786Z,17.14
2023-06-30T05:37:58.691Z,17.14
2023-06-30T05:40:25.514Z,17.20
2023-06-30T05:42:52.372Z,17.00
2023-06-30T05:45:19.261Z,17.13
2023-06-30T05:47:46.139Z,17.19
2023-06-30T05:50:12.885Z,17.07
2023-06-30T05:52:40.317Z,17.25
2023-06-30T05:55:07.353Z,17.59
2023-06-30T05:57:34.673Z,17.70
2023-06-30T06:00:01.418Z,17.64
2023-06-30T06:02:38.873Z,17.34
2023-06-30T06:05:06.089Z,17.72
2023-06-30T06:07:34.032Z,17.89
2023-06-30T06:10:01.035Z,17.95
2023-06-30T06:12:27.869Z,17.96
2023-06-30T06:14:54.795Z,17.72
2023-06-30T06:17:21.678Z,17.89
2023-06-30T06:19:49.536Z,18.02
2023-06-30T06:22:16.559Z,18.16
2023-06-30T06:24:43.480Z,18.42
2023-06-30T06:27:10.258Z,18.72
2023-06-30T06:29:37.030Z,18.66
2023-06-30T06:32:03.995Z,18.55
2023-06-30T06:34:31.049Z,18.46
2023-06-30T06:36:57.898Z,18.50
2023-06-30T06:39:24.868Z,18.91
2023-06-30T06:41:51.580Z,19.17
2023-06-30T06:44:18.529Z,19.37
2023-06-30T06:46:45.770Z,19.24
2023-06-30T06:49:12.769Z,19.22
2023-06-30T06:51:39.588Z,18.98
2023-06-30T06:54:06.396Z,19.14
2023-06-30T06:56:33.279Z,19.39
2023-06-30T06:59:00.156Z,19.57
2023-06-30T07:01:27.001Z,19.72
2023-06-30T07:03:54.047Z,19.90
2023-06-30T07:06:22.402Z,20.15
2023-06-30T07:08:50.185Z,20.31
2023-06-30T07:11:17.016Z,20.40
2023-06-30T07:13:43.939Z,20.50
2023-06-30T07:16:11.968Z,20.71
2023-06-30T07:18:38.978Z,20.67
2023-06-30T07:21:05.915Z,20.29
2023-06-30T07:23:32.798Z,20.22
2023-06-30T07:25:59.723Z,20.48
2023-06-30T07:28:26.628Z,20.74
2023-06-30T07:30:53.773Z,20.46
2023-06-30T07:33:21.164Z,20.44
2023-06-30T07:35:48.349Z,20.52
2023-06-30T07:38:15.429Z,20.60
2023-06-30T07:40:55.125Z,20.72
2023-06-30T07:43:23.938Z,21.06
2023-06-30T07:45:50.891Z,21.03
2023-06-30T07:48:17.792Z,21.00
2023-06-30T07:50:54.559Z,21.17
2023-06-30T07:53:30.407Z,20.81
2023-06-30T07:55:57.277Z,20.93
2023-06-30T07:58:24.088Z,21.22
2023-06-30T08:00:50.896Z,21.48
2023-06-30T08:03:17.961Z,21.53
2023-06-30T08:05:45.376Z,21.81
2023-06-30T08:08:12.946Z,22.02
2023-06-30T08:10:41.514Z,22.16
2023-06-30T08:13:09.079Z,21.98
2023-06-30T08:15:36.077Z,21.84
2023-06-30T08:18:10.249Z,21.79
2023-06-30T08:20:37.641Z,21.74
2023-06-30T08:23:04.554Z,21.88
2023-06-30T08:25:31.296Z,22.04
2023-06-30T08:27:58.669Z,22.26
2023-06-30T08:30:25.808Z,22.41
2023-06-30T08:32:55.460Z,22.24
2023-06-30T08:35:23.825Z,22.25
2023-06-30T08:37:53.294Z,22.56
2023-06-30T08:40:25.716Z,22.70
2023-06-30T08:42:53.337Z,22.79
2023-06-30T08:45:24.551Z,22.62
2023-06-30T08:47:52.246Z,22.75
2023-06-30T08:50:19.546Z,22.75
2023-06-30T08:52:46.666Z,22.72
2023-06-30T08:55:13.901Z,23.04
2023-06-30T08:57:42.489Z,23.33
2023-06-30T09:00:09.538Z,23.27
2023-06-30T09:02:37.759Z,23.39
2023-06-30T09:05:05.638Z,23.71
2023-06-30T09:07:39.253Z,23.75
2023-06-30T09:10:09.879Z,23.92
2023-06-30T09:12:38.845Z,23.65
2023-06-30T09:15:07.785Z,23.86
2023-06-30T09:17:34.832Z,23.94
2023-06-30T09:20:01.760Z,23.72
2023-06-30T09:22:55.311Z,23.67
2023-06-30T09:25:26.471Z,23.90
2023-06-30T09:27:53.839Z,24.27
2023-06-30T09:30:32.123Z,24.26
2023-06-30T09:32:59.143Z,24.26
2023-06-30T09:35:26.030Z,23.92
2023-06-30T09:37:54.330Z,24.01
2023-06-30T09:40:27.361Z,24.17
2023-06-30T09:42:54.494Z,24.22
2023-06-30T09:45:21.721Z,24.15
2023-06-30T09:47:52.665Z,24.30
2023-06-30T09:50:26.172Z,23.94
2023-06-30T09:52:53.019Z,24.04
2023-06-30T09:55:19.939Z,24.09
2023-06-30T09:57:47.600Z,24.21
2023-06-30T10:00:29.813Z,24.20
2023-06-30T10:03:06.472Z,24.62
2023-06-30T10:05:33.594Z,24.76
2023-06-30T10:08:03.682Z,24.64
2023-06-30T10:10:32.018Z,24.53
2023-06-30T10:13:00.009Z,24.67
2023-06-30T10:15:27.456Z,24.63
2023-06-30T10:17:55.869Z,25.12
2023-06-30T10:20:33.940Z,25.01
2023-06-30T10:23:09.918Z,25.14
2023-06-30T10:25:38.909Z,25.24
2023-06-30T10:28:07.539Z,25.49
2023-06-30T10:30:35.469Z,25.71
2023-06-30T10:33:02.866Z,25.80
2023-06-30T10:35:30.134Z,25.93
2023-06-30T10:37:57.558Z,25.90
2023-06-30T10:40:25.913Z,26.07
2023-06-30T10:42:54.562Z,25.91
2023-06-30T10:45:21.463Z,25.47
2023-06-30T10:47:54.176Z,25.20
2023-06-30T10:50:21.039Z,25.31
2023-06-30T10:52:51.865Z,25.07
2023-06-30T10:55:22.143Z,25.27
2023-06-30T10:57:53.014Z,25.44
2023-06-30T11:00:22.687Z,25.69
2023-06-30T11:02:59.799Z,25.95
2023-06-30T11:05:30.782Z,26.06
2023-06-30T11:08:05.346Z,26.10
2023-06-30T11:10:36.604Z,26.35
2023-06-30T11:13:04.503Z,26.39
2023-06-30T11:15:38.642Z,26.53
2023-06-30T11:18:07.497Z,26.40
2023-06-30T11:20:34.631Z,26.19
2023-06-30T11:23:06.570Z,26.52
2023-06-30T11:25:34.588Z,26.32
2023-06-30T11:28:03.446Z,26.40
2023-06-30T11:30:34.877Z,26.40
2023-06-30T11:33:01.729Z,26.58
2023-06-30T11:35:30.357Z,26.56
2023-06-30T11:37:57.198Z,26.03
2023-06-30T11:40:24.115Z,26.40
2023-06-30T11:42:51.311Z,26.29
2023-06-30T11:45:21.508Z,26.19
2023-06-30T11:47:50.679Z,26.14
2023-06-30T11:50:20.194Z,26.13
2023-06-30T11:52:48.673Z,26.09
2023-06-30T11:55:16.267Z,26.29
2023-06-30T11:57:44.493Z,26.49
2023-06-30T12:00:19.108Z,26.40
2023-06-30T12:02:59.633Z,26.41
2023-06-30T12:05:27.856Z,26.42
2023-06-30T12:07:57.442Z,26.59
2023-06-30T12:10:38.981Z,26.48
2023-06-30T12:13:09.758Z,26.50
2023-06-30T12:15:37.740Z,26.36
2023-06-30T12:18:07.658Z,26.65
2023-06-30T12:20:39.253Z,26.54
2023-06-30T12:23:07.250Z,26.61
2023-06-30T12:25:37.714Z,26.70
2023-06-30T12:28:05.356Z,26.88
2023-06-30T12:30:32.580Z,27.02
2023-06-30T12:33:00.919Z,27.17
2023-06-30T12:35:28.486Z,27.22
2023-06-30T12:37:55.205Z,26.85
2023-06-30T12:40:22.811Z,27.03
2023-06-30T12:42:49.703Z,27.36
2023-06-30T12:45:17.716Z,27.42
2023-06-30T12:47:44.676Z,27.49
2023-06-30T12:50:11.708Z,27.56
2023-06-30T12:52:38.790Z,27.57
2023-06-30T12:55:05.728Z,27.68
2023-06-30T12:57:32.633Z,27.90
2023-06-30T12:59:59.861Z,28.16
2023-06-30T13:02:26.608Z,28.06
2023-06-30T13:04:53.677Z,27.78
2023-06-30T13:07:20.568Z,27.89
2023-06-30T13:09:50.266Z,27.92
2023-06-30T13:12:18.224Z,28.02
2023-06-30T13:14:45.625Z,28.06
2023-06-30T13:17:12.478Z,28.16
2023-06-30T13:19:39.266Z,28.16
2023-06-30T13:22:06.321Z,28.19
2023-06-30T13:24:33.090Z,28.03
2023-06-30T13:27:00.321Z,27.70
2023-06-30T13:29:27.181Z,27.91
2023-06-30T13:31:54.744Z,28.13
2023-06-30T13:34:21.803Z,28.24
2023-06-30T13:36:48.599Z,28.19
2023-06-30T13:39:15.509Z,27.91
2023-06-30T13:41:43.168Z,27.66
2023-06-30T13:44:10.608Z,27.55
2023-06-30T13:46:37.495Z,27.46
2023-06-30T13:49:04.315Z,27.30
2023-06-30T13:51:31.204Z,27.51
2023-06-30T13:53:58.118Z,27.52
2023-06-30T13:56:25.007Z,27.59
2023-06-30T13:58:51.775Z,27.74
2023-06-30T14:01:18.651Z,27.90
2023-06-30T14:03:49.662Z,27.93
2023-06-30T14:06:17.710Z,27.76
2023-06-30T14:08:44.617Z,28.00
2023-06-30T14:11:11.371Z,28.21
2023-06-30T14:13:38.746Z,28.29
2023-06-30T14:16:05.788Z,28.34
2023-06-30T14:18:32.745Z,28.41
2023-06-30T14:20:59.581Z,28.49
2023-06-30T14:23:26.741Z,28.31
2023-06-30T14:25:53.633Z,28.22
2023-06-30T14:28:20.503Z,28.22
2023-06-30T14:30:47.333Z,28.17
2023-06-30T14:33:14.192Z,28.23
2023-06-30T14:35:41.058Z,28.27
2023-06-30T14:38:07.977Z,28.20
2023-06-30T14:40:34.926Z,28.10
2023-06-30T14:43:01.768Z,28.12
2023-06-30T14:45:31.601Z,27.80
2023-06-30T14:47:58.801Z,28.14
2023-06-30T14:50:25.880Z,27.84
2023-06-30T14:52:52.773Z,28.13
2023-06-30T14:55:19.633Z,28.21
2023-06-30T14:57:46.942Z,28.11
2023-06-30T15:00:14.412Z,28.07
2023-06-30T15:02:41.270Z,28.11
2023-06-30T15:05:08.364Z,28.27
2023-06-30T15:07:36.552Z,28.16
2023-06-30T15:10:03.665Z,28.03
2023-06-30T15:12:30.694Z,27.98
2023-06-30T15:14:57.628Z,28.03
2023-06-30T15:17:24.479Z,27.93
2023-06-30T15:19:51.560Z,28.20
2023-06-30T15:22:18.791Z,28.14
2023-06-30T15:24:45.700Z,28.17
2023-06-30T15:27:12.788Z,28.51
2023-06-30T15:29:39.611Z,28.63
2023-06-30T15:32:06.379Z,28.46
2023-06-30T15:34:33.203Z,28.27
2023-06-30T15:37:00.473Z,28.46
2023-06-30T15:39:27.953Z,28.63
2023-06-30T15:41:54.705Z,28.47
2023-06-30T15:44:21.492Z,28.67
2023-06-30T15:46:48.282Z,28.91
2023-06-30T15:49:15.134Z,29.35
2023-06-30T15:51:41.970Z,29.93
2023-06-30T15:54:08.772Z,29.52
2023-06-30T15:56:35.643Z,29.98
2023-06-30T15:59:02.523Z,30.32
2023-06-30T16:01:29.944Z,30.64
2023-06-30T16:03:56.938Z,31.45
2023-06-30T16:06:23.984Z,32.61
2023-06-30T16:08:50.800Z,33.94
2023-06-30T16:11:17.684Z,34.72
2023-06-30T16:14:03.442Z,36.18
2023-06-30T16:16:30.310Z,35.76
2023-06-30T16:18:57.174Z,36.96
2023-06-30T16:21:24.006Z,37.98
2023-06-30T16:23:51.341Z,38.58
2023-06-30T16:26:20.230Z,37.77
2023-06-30T16:28:47.155Z,36.66
2023-06-30T16:31:14.362Z,35.77
2023-06-30T16:33:41.567Z,35.61
2023-06-30T16:36:09.213Z,35.49
2023-06-30T16:38:36.265Z,36.26
2023-06-30T16:41:03.077Z,36.74
2023-06-30T16:43:29.945Z,36.88
2023-06-30T16:45:56.734Z,36.65
2023-06-30T16:48:23.532Z,36.47
2023-06-30T16:50:50.449Z,36.76
2023-06-30T16:53:17.490Z,37.72
2023-06-30T16:55:44.374Z,38.15
2023-06-30T16:58:13.523Z,39.13
2023-06-30T17:00:40.455Z,38.55
2023-06-30T17:03:07.418Z,37.83
2023-06-30T17:05:34.583Z,38.51
2023-06-30T17:08:01.342Z,39.04
2023-06-30T17:10:28.292Z,38.93
2023-06-30T17:12:55.950Z,38.82
2023-06-30T17:15:27.248Z,38.20
2023-06-30T17:17:56.562Z,36.48
2023-06-30T17:20:24.399Z,35.59
2023-06-30T17:22:51.516Z,34.23
2023-06-30T17:25:18.267Z,33.25
2023-06-30T17:27:45.285Z,32.15
2023-06-30T17:30:12.263Z,31.43
2023-06-30T17:32:39.440Z,30.82
2023-06-30T17:35:06.452Z,30.15
2023-06-30T17:37:33.296Z,29.62
2023-06-30T17:40:00.080Z,28.87
2023-06-30T17:42:26.832Z,28.34
2023-06-30T17:44:53.720Z,28.06
2023-06-30T17:47:20.766Z,27.68
2023-06-30T17:49:48.342Z,27.37
2023-06-30T17:52:16.229Z,27.17
2023-06-30T17:54:43.148Z,26.85
2023-06-30T17:57:09.973Z,26.67
2023-06-30T17:59:36.790Z,26.34
2023-06-30T18:02:06.226Z,26.04
2023-06-30T18:04:33.584Z,25.61
2023-06-30T18:07:06.580Z,25.08
2023-06-30T18:09:35.496Z,24.74
2023-06-30T18:12:02.863Z,24.49
2023-06-30T18:14:30.274Z,24.21
2023-06-30T18:16:57.524Z,24.15
2023-06-30T18:19:24.570Z,24.08
2023-06-30T18:21:52.864Z,24.04
2023-06-30T18:24:19.918Z,23.78
2023-06-30T18:26:50.276Z,23.59
2023-06-30T18:29:18.141Z,23.55
2023-06-30T18:31:45.152Z,23.40
2023-06-30T18:34:12.173Z,23.14
2023-06-30T18:36:39.040Z,22.99
2023-06-30T18:39:06.082Z,22.83
2023-06-30T18:41:32.878Z,22.83
2023-06-30T18:43:59.853Z,22.82
2023-06-30T18:46:29.785Z,22.81
2023-06-30T18:49:02.146Z,22.88
2023-06-30T18:51:31.260Z,22.84
2023-06-30T18:53:58.293Z,22.78
2023-06-30T18:56:26.123Z,22.78
2023-06-30T18:58:55.453Z,22.76
2023-06-30T19:01:22.488Z,22.69
2023-06-30T19:03:51.347Z,22.42
2023-06-30T19:06:21.755Z,22.40
2023-06-30T19:08:49.142Z,22.29
2023-06-30T19:11:16.357Z,22.19
2023-06-30T19:13:43.283Z,22.06
2023-06-30T19:16:10.849Z,21.98
2023-06-30T19:18:40.085Z,21.72
2023-06-30T19:21:10.480Z,21.68
2023-06-30T19:23:38.284Z,21.63
2023-06-30T19:26:05.273Z,21.58
2023-06-30T19:28:32.887Z,21.64
2023-06-30T19:31:00.231Z,21.69
2023-06-30T19:33:31.573Z,21.51
2023-06-30T19:35:58.693Z,21.35
2023-06-30T19:38:25.738Z,21.39
2023-06-30T19:40:52.718Z,21.38
2023-06-30T19:43:19.530Z,21.36
2023-06-30T19:45:46.966Z,21.36
2023-06-30T19:48:13.926Z,21.15
2023-06-30T19:50:42.679Z,21.00
2023-06-30T19:53:09.713Z,21.09
2023-06-30T19:55:36.872Z,21.12
2023-06-30T19:58:03.816Z,20.83
2023-06-30T20:00:31.152Z,20.93
2023-06-30T20:02:58.557Z,21.05
2023-06-30T20:05:25.520Z,20.62
2023-06-30T20:07:52.277Z,20.48
2023-06-30T20:10:19.217Z,20.56
2023-06-30T20:12:46.159Z,20.73
2023-06-30T20:15:13.074Z,20.76
2023-06-30T20:17:40.057Z,20.57
2023-06-30T20:20:07.475Z,20.40
2023-06-30T20:22:34.449Z,20.43
2023-06-30T20:25:01.446Z,20.61
2023-06-30T20:27:29.394Z,20.49
2023-06-30T20:29:56.152Z,20.06
2023-06-30T20:32:23.365Z,20.18
2023-06-30T20:34:59.018Z,20.20
2023-06-30T20:37:25.919Z,19.90
2023-06-30T20:39:55.955Z,19.86
2023-06-30T20:42:23.953Z,20.08
2023-06-30T20:44:51.265Z,19.88
2023-06-30T20:47:18.746Z,19.91
2023-06-30T20:49:45.991Z,19.96
2023-06-30T20:52:12.884Z,19.73
2023-06-30T20:54:39.722Z,19.88
2023-06-30T20:57:06.737Z,19.81
2023-06-30T20:59:33.575Z,19.46
2023-06-30T21:02:01.047Z,19.76
2023-06-30T21:04:28.029Z,19.57
2023-06-30T21:06:55.001Z,19.43
2023-06-30T21:09:21.755Z,19.48
2023-06-30T21:11:48.633Z,19.22
2023-06-30T21:14:15.415Z,19.39
2023-06-30T21:16:42.862Z,19.33
2023-06-30T21:19:09.859Z,19.34
2023-06-30T21:21:36.816Z,19.39
2023-06-30T21:24:03.807Z,19.07
2023-06-30T21:26:30.631Z,19.16
2023-06-30T21:28:57.456Z,19.00
2023-06-30T21:31:24.586Z,19.15
2023-06-30T21:33:51.810Z,19.09
2023-06-30T21:36:18.684Z,18.92
2023-06-30T21:38:45.535Z,18.99
2023-06-30T21:41:12.537Z,19.01
2023-06-30T21:43:39.287Z,18.95
2023-06-30T21:46:16.590Z,18.88
2023-06-30T21:48:44.576Z,18.93
2023-06-30T21:51:11.397Z,18.94
2023-06-30T21:53:38.328Z,18.72
2023-06-30T21:56:05.702Z,18.64
2023-06-30T21:58:32.674Z,18.76
2023-06-30T22:00:59.643Z,18.54
2023-06-30T22:03:27.291Z,18.34
2023-06-30T22:05:54.285Z,18.44
2023-06-30T22:08:21.313Z,18.43
2023-06-30T22:10:48.465Z,18.34
2023-06-30T22:13:15.446Z,18.41
2023-06-30T22:15:42.367Z,18.44
2023-06-30T22:18:09.768Z,18.33
2023-06-30T22:20:36.663Z,18.29
2023-06-30T22:23:03.465Z,18.29
2023-06-30T22:25:30.352Z,18.22
2023-06-30T22:27:57.229Z,18.15
2023-06-30T22:30:25.853Z,18.14
2023-06-30T22:32:52.956Z,18.20
2023-06-30T22:35:19.915Z,18.28
2023-06-30T22:37:46.751Z,18.11
2023-06-30T22:40:14.350Z,18.19
2023-06-30T22:42:41.331Z,18.17
2023-06-30T22:45:08.366Z,18.26
2023-06-30T22:47:35.372Z,18.18
2023-06-30T22:50:02.814Z,18.24
2023-06-30T22:52:30.567Z,18.22
2023-06-30T22:54:57.408Z,18.12
2023-06-30T22:57:24.230Z,18.07
2023-06-30T22:59:52.604Z,17.83
2023-06-30T23:02:19.830Z,17.72
2023-06-30T23:04:46.914Z,17.96
2023-06-30T23:07:16.046Z,17.73
2023-06-30T23:09:42.938Z,17.71
2023-06-30T23:12:10.003Z,17.60
2023-06-30T23:14:36.826Z,17.65
2023-06-30T23:17:04.450Z,17.63
2023-06-30T23:19:33.152Z,17.47
2023-06-30T23:22:12.840Z,17.54
2023-06-30T23:24:39.827Z,17.42
2023-06-30T23:27:07.049Z,17.00
2023-06-30T23:29:37.304Z,17.44
2023-06-30T23:32:08.252Z,17.64
2023-06-30T23:34:38.140Z,17.35
2023-06-30T23:37:05.516Z,17.47
2023-06-30T23:39:32.335Z,17.41
2023-06-30T23:41:59.472Z,17.49
2023-06-30T23:44:26.841Z,17.42
2023-06-30T23:46:54.606Z,17.34
2023-06-30T23:49:21.750Z,17.19
2023-06-30T23:51:48.963Z,17.35
2023-06-30T23:54:16.086Z,17.27
2023-06-30T23:56:43.355Z,17.18
2023-06-30T23:59:10.548Z,17.21
